Time;durP1;ratioP1;P1;durP2;ratioP2;P2;SDS_P1;SDS_P2;PMS_P1;PMS_P2;Temp;Humidity;BMP_temperature;BMP_pressure;BME280_temperature;BME280_humidity;BME280_pressure;Samples;Min_cycle;Max_cycle;Signal;HPM_P1;HPM_P2
2021/06/08 00:02:18;;;;;;;5.25;4.18;;;;;;;20.01;46.56;102255.03;5045521;27;124052;-71
2021/06/08 00:04:45;;;;;;;6.22;4.38;;;;;;;19.99;46.48;102262.34;5047728;27;123739;-71
2021/06/08 00:07:12;;;;;;;5.60;4.30;;;;;;;19.97;46.34;102258.88;5047969;27;113590;-71
2021/06/08 00:09:39;;;;;;;8.20;4.50;;;;;;;19.94;46.35;102267.13;5041457;27;112949;-71
2021/06/08 00:12:07;;;;;;;6.88;4.22;;;;;;;19.90;46.36;102262.91;5038945;27;123934;-70
2021/06/08 00:14:34;;;;;;;5.70;4.60;;;;;;;19.88;46.34;102264.81;5041615;27;124224;-70
2021/06/08 00:17:02;;;;;;;6.45;4.22;;;;;;;19.85;46.33;102267.69;5042694;27;114240;-71
2021/06/08 00:19:29;;;;;;;5.20;4.38;;;;;;;19.82;46.34;102260.69;5044519;27;114151;-71
2021/06/08 00:21:56;;;;;;;8.80;4.68;;;;;;;19.79;46.30;102254.63;5044397;27;124518;-71
2021/06/08 00:24:23;;;;;;;6.13;4.30;;;;;;;19.76;46.50;102261.06;5049333;27;124561;-71
2021/06/08 00:26:51;;;;;;;5.13;4.35;;;;;;;19.74;46.25;102262.13;5047987;27;114235;-71
2021/06/08 00:29:18;;;;;;;6.85;4.78;;;;;;;19.72;46.51;102258.63;5043372;27;114750;-71
2021/06/08 00:31:45;;;;;;;5.82;4.45;;;;;;;19.70;46.36;102260.53;5042355;27;124399;-71
2021/06/08 00:34:13;;;;;;;6.82;4.70;;;;;;;19.67;46.45;102260.75;5047499;27;124367;-72
2021/06/08 00:36:40;;;;;;;7.05;4.75;;;;;;;19.63;46.49;102260.91;5050805;27;114953;-72
2021/06/08 00:39:07;;;;;;;5.57;4.78;;;;;;;19.61;46.66;102260.16;5050708;27;114934;-71
2021/06/08 00:41:37;;;;;;;6.72;5.07;;;;;;;19.56;46.57;102262.25;5043625;27;123809;-72
2021/06/08 00:44:11;;;;;;;6.22;5.07;;;;;;;19.53;46.45;102265.09;5049777;27;123904;-71
2021/06/08 00:46:40;;;;;;;5.50;4.68;;;;;;;19.52;46.63;102263.41;5050774;27;114528;-71
2021/06/08 00:49:07;;;;;;;6.60;5.10;;;;;;;19.50;46.68;102261.78;5046797;27;114374;-72
2021/06/08 00:51:34;;;;;;;7.22;5.22;;;;;;;19.47;46.50;102257.41;5045434;27;124414;-72
2021/06/08 00:54:06;;;;;;;7.47;5.45;;;;;;;19.44;46.47;102254.94;5047207;27;124034;-72
2021/06/08 00:56:35;;;;;;;7.57;5.22;;;;;;;19.41;46.73;102255.13;5053693;27;114472;-71
2021/06/08 00:59:02;;;;;;;6.85;5.13;;;;;;;19.39;46.80;102262.41;5043869;27;114377;-72
2021/06/08 01:01:30;;;;;;;6.07;5.47;;;;;;;19.36;46.87;102258.06;5049680;27;124555;-71
2021/06/08 01:03:57;;;;;;;8.50;5.28;;;;;;;19.36;46.85;102257.19;5042532;27;123483;-71
2021/06/08 01:06:24;;;;;;;7.78;5.57;;;;;;;19.32;47.02;102266.41;5057217;22;114643;-70
2021/06/08 01:08:51;;;;;;;6.75;5.72;;;;;;;19.26;46.91;102263.13;5019857;28;113932;-71
2021/06/08 01:11:18;;;;;;;7.82;6.22;;;;;;;19.21;47.01;102259.88;5026167;28;124292;-69
2021/06/08 01:13:45;;;;;;;9.05;6.38;;;;;;;19.15;47.07;102254.81;5023927;28;123813;-69
2021/06/08 01:16:12;;;;;;;7.80;5.82;;;;;;;19.10;47.29;102262.31;5037158;27;114581;-70
2021/06/08 01:18:39;;;;;;;7.32;6.57;;;;;;;19.05;47.40;102256.34;5052219;27;113992;-70
2021/06/08 01:21:08;;;;;;;7.03;6.28;;;;;;;19.01;47.65;102257.47;5045233;27;123876;-70
2021/06/08 01:23:37;;;;;;;7.00;6.30;;;;;;;18.98;47.48;102263.00;5042702;27;122809;-70
2021/06/08 01:26:06;;;;;;;7.28;5.72;;;;;;;18.94;47.63;102261.47;5050210;27;115449;-70
2021/06/08 01:28:35;;;;;;;8.15;5.95;;;;;;;18.91;47.88;102258.94;5047559;27;113618;-71
2021/06/08 01:31:07;;;;;;;6.60;5.88;;;;;;;18.90;47.93;102259.91;5051764;27;124246;-70
2021/06/08 01:33:39;;;;;;;10.35;7.13;;;;;;;18.88;47.80;102256.47;5048804;27;123148;-71
2021/06/08 01:36:08;;;;;;;8.13;6.63;;;;;;;18.86;47.70;102262.75;5050243;27;114148;-70
2021/06/08 01:38:36;;;;;;;9.20;5.97;;;;;;;18.83;47.99;102265.63;5052337;27;114528;-70
2021/06/08 01:41:03;;;;;;;7.68;6.40;;;;;;;18.80;47.98;102265.81;5051754;27;124460;-70
2021/06/08 01:43:30;;;;;;;8.13;6.47;;;;;;;18.76;48.20;102269.59;5050409;27;122763;-70
2021/06/08 01:45:58;;;;;;;9.38;6.53;;;;;;;18.73;47.95;102269.75;5049803;27;113362;-70
2021/06/08 01:48:25;;;;;;;7.63;6.53;;;;;;;18.70;48.11;102269.91;5048079;27;114516;-70
2021/06/08 01:50:52;;;;;;;7.25;6.25;;;;;;;18.67;48.12;102264.75;5041827;27;123231;-70
2021/06/08 01:53:37;;;;;;;7.38;6.18;;;;;;;18.62;48.28;102256.09;5049994;27;123466;-70
2021/06/08 01:56:09;;;;;;;8.02;6.40;;;;;;;18.58;48.26;102254.53;5048300;27;113583;-71
2021/06/08 01:58:45;;;;;;;8.20;6.18;;;;;;;18.57;48.36;102263.50;5048645;27;114267;-70
2021/06/08 02:01:12;;;;;;;8.80;6.38;;;;;;;18.54;48.44;102252.97;5048013;27;124615;-70
2021/06/08 02:03:52;;;;;;;8.18;6.97;;;;;;;18.48;48.65;102257.72;5049509;27;123173;-70
2021/06/08 02:06:33;;;;;;;8.13;6.97;;;;;;;18.46;48.73;102262.31;5046642;27;114266;-70
2021/06/08 02:09:17;;;;;;;8.40;6.90;;;;;;;18.43;48.56;102266.97;5051161;27;114068;-70
2021/06/08 02:11:51;;;;;;;9.32;6.80;;;;;;;18.40;48.69;102262.66;5045871;27;124621;-71
2021/06/08 02:14:40;;;;;;;7.78;6.97;;;;;;;18.35;48.54;102258.50;5049201;27;122851;-71
2021/06/08 02:17:28;;;;;;;8.57;7.60;;;;;;;18.31;48.72;102262.28;5032787;27;115341;-70
2021/06/08 02:20:01;;;;;;;8.65;7.53;;;;;;;18.24;48.74;102261.75;5049998;27;114171;-71
2021/06/08 02:22:29;;;;;;;9.27;7.63;;;;;;;18.18;48.99;102262.97;5048724;27;124354;-70
2021/06/08 02:24:57;;;;;;;8.25;7.13;;;;;;;18.14;49.07;102261.41;5046389;27;122824;-70
2021/06/08 02:27:26;;;;;;;10.82;7.63;;;;;;;18.09;49.15;102263.47;5049944;27;114155;-70
2021/06/08 02:29:54;;;;;;;10.13;8.27;;;;;;;18.04;49.15;102266.38;5035664;27;114353;-70
2021/06/08 02:32:23;;;;;;;9.80;7.90;;;;;;;18.01;49.34;102261.19;5046995;27;122319;-70
2021/06/08 02:34:51;;;;;;;9.35;8.07;;;;;;;17.96;49.42;102268.59;5049280;27;122852;-70
2021/06/08 02:37:19;;;;;;;11.07;8.88;;;;;;;17.92;49.47;102272.41;5038947;27;114036;-70
2021/06/08 02:39:48;;;;;;;8.82;7.60;;;;;;;17.89;49.81;102272.56;5045730;27;114319;-70
2021/06/08 02:42:18;;;;;;;10.02;8.15;;;;;;;17.88;49.65;102270.84;5049467;27;124444;-70
2021/06/08 02:44:47;;;;;;;12.52;8.27;;;;;;;17.85;49.50;102271.00;5045114;27;125923;-71
2021/06/08 02:47:17;;;;;;;9.77;8.13;;;;;;;17.80;49.62;102278.38;5042921;27;113968;-70
2021/06/08 02:49:47;;;;;;;8.90;7.95;;;;;;;17.76;49.67;102271.44;5051494;27;114074;-70
2021/06/08 02:52:19;;;;;;;11.50;7.95;;;;;;;17.69;49.78;102276.28;5050000;27;123812;-70
2021/06/08 02:54:49;;;;;;;8.80;7.90;;;;;;;17.62;49.91;102275.72;5040647;27;121848;-70
2021/06/08 02:57:20;;;;;;;11.85;8.35;;;;;;;17.58;49.98;102273.28;5044254;27;113927;-70
2021/06/08 02:59:50;;;;;;;9.30;7.85;;;;;;;17.54;49.82;102267.22;5048158;27;114391;-70
2021/06/08 03:02:20;;;;;;;10.00;7.65;;;;;;;17.52;50.05;102269.13;5049114;27;125950;-70
2021/06/08 03:04:52;;;;;;;9.40;8.32;;;;;;;17.47;50.12;102272.00;5048562;27;124245;-70
2021/06/08 03:07:22;;;;;;;10.10;8.50;;;;;;;17.43;50.04;102269.59;5060816;27;114842;-70
2021/06/08 03:09:57;;;;;;;11.43;7.93;;;;;;;17.40;50.16;102275.09;5044847;27;115389;-70
2021/06/08 03:12:32;;;;;;;12.00;8.55;;;;;;;17.36;50.18;102278.88;5037320;27;124126;-70
2021/06/08 03:15:01;;;;;;;11.07;8.38;;;;;;;17.33;50.33;102279.91;5038759;27;124176;-70
2021/06/08 03:17:30;;;;;;;11.48;8.35;;;;;;;17.30;50.30;102280.03;5046469;27;113913;-70
2021/06/08 03:20:11;;;;;;;9.13;7.72;;;;;;;17.25;50.23;102277.63;5046701;27;113601;-70
2021/06/08 03:22:43;;;;;;;10.35;9.10;;;;;;;17.23;50.35;102279.47;5047812;27;123931;-70
2021/06/08 03:25:12;;;;;;;12.00;9.45;;;;;;;17.18;50.57;102284.22;5048802;27;123975;-70
2021/06/08 03:27:42;;;;;;;13.18;9.75;;;;;;;17.14;50.74;102285.31;5049571;27;114319;-70
2021/06/08 03:30:11;;;;;;;9.75;8.75;;;;;;;17.10;51.14;102286.38;5048544;27;113832;-70
2021/06/08 03:32:38;;;;;;;10.20;9.05;;;;;;;17.06;51.08;102288.34;5045753;27;124237;-70
2021/06/08 03:35:07;;;;;;;11.65;9.48;;;;;;;17.01;51.27;102281.47;5045453;27;124178;-70
2021/06/08 03:37:35;;;;;;;10.90;9.20;;;;;;;16.99;51.25;102275.34;5048318;27;114257;-70
2021/06/08 03:40:04;;;;;;;10.73;9.40;;;;;;;16.96;51.54;102278.19;5046442;27;114219;-70
2021/06/08 03:42:31;;;;;;;10.95;9.63;;;;;;;16.93;51.48;102282.75;5048325;27;123978;-70
2021/06/08 03:44:59;;;;;;;12.48;9.60;;;;;;;16.93;51.55;102288.09;5047513;27;122969;-71
2021/06/08 03:47:26;;;;;;;13.20;10.30;;;;;;;16.93;51.62;102285.44;5044941;27;113114;-70
2021/06/08 03:49:55;;;;;;;13.18;9.65;;;;;;;16.93;51.90;102281.88;5048176;27;114276;-70
2021/06/08 03:52:25;;;;;;;11.30;8.80;;;;;;;16.91;51.67;102290.00;5046888;27;123821;-70
2021/06/08 03:54:52;;;;;;;13.68;8.82;;;;;;;16.88;51.67;102290.13;5049551;27;123900;-70
2021/06/08 03:57:27;;;;;;;11.75;9.32;;;;;;;16.85;51.83;102290.25;5045339;27;115062;-70
2021/06/08 03:59:58;;;;;;;14.20;9.37;;;;;;;16.84;51.89;102293.91;5069971;27;115472;-70
2021/06/08 04:02:26;;;;;;;11.95;9.05;;;;;;;16.83;51.73;102292.16;5071413;27;122939;-70
2021/06/08 04:04:53;;;;;;;12.18;9.27;;;;;;;16.81;51.92;102288.66;5067580;27;122995;-70
2021/06/08 04:07:20;;;;;;;12.52;10.18;;;;;;;16.81;52.11;102294.00;5070033;27;115206;-70
2021/06/08 04:09:48;;;;;;;13.60;9.68;;;;;;;16.80;52.17;102292.28;5073590;27;115035;-70
2021/06/08 04:12:21;;;;;;;12.48;9.98;;;;;;;16.78;52.39;102294.13;5065898;27;125427;-70
2021/06/08 04:14:49;;;;;;;11.20;10.00;;;;;;;16.77;52.39;102297.78;5059007;27;124482;-70
2021/06/08 04:17:17;;;;;;;13.20;10.70;;;;;;;16.77;52.60;102292.41;5077321;27;113738;-70
2021/06/08 04:19:45;;;;;;;11.43;9.90;;;;;;;16.77;52.73;102287.06;5074785;27;114906;-69
2021/06/08 04:22:25;;;;;;;13.20;10.02;;;;;;;16.78;52.74;102285.25;5077095;27;123683;-70
2021/06/08 04:24:52;;;;;;;14.10;10.15;;;;;;;16.82;52.84;102295.78;5071937;27;124661;-71
2021/06/08 04:27:27;;;;;;;12.13;10.23;;;;;;;16.83;52.86;102294.81;5063962;27;113476;-71
2021/06/08 04:29:55;;;;;;;12.75;10.32;;;;;;;16.88;52.86;102300.84;5049035;27;113136;-71
2021/06/08 04:32:23;;;;;;;14.20;10.73;;;;;;;16.90;52.98;102293.59;5050671;27;123884;-70
2021/06/08 04:34:52;;;;;;;16.15;11.50;;;;;;;16.93;53.26;102288.09;5043124;27;124027;-69
2021/06/08 04:37:19;;;;;;;15.70;11.80;;;;;;;16.98;53.34;102292.34;5050614;27;114289;-71
2021/06/08 04:39:47;;;;;;;14.73;11.93;;;;;;;17.03;53.48;102295.69;5051426;27;114159;-70
2021/06/08 04:42:17;;;;;;;15.05;12.02;;;;;;;17.06;53.66;102283.00;5042608;27;123433;-70
2021/06/08 04:44:45;;;;;;;15.35;12.13;;;;;;;17.12;53.72;102287.16;5039964;27;124552;-70
2021/06/08 04:47:15;;;;;;;14.45;12.32;;;;;;;17.18;54.02;102288.69;5045219;27;115638;-71
2021/06/08 04:49:42;;;;;;;18.25;12.65;;;;;;;17.24;53.84;102291.94;5046249;27;116193;-70
2021/06/08 04:52:10;;;;;;;15.25;12.60;;;;;;;17.31;53.99;102288.00;5044073;27;124310;-71
2021/06/08 04:54:38;;;;;;;15.25;12.07;;;;;;;17.41;53.98;102290.22;5052474;27;123221;-70
2021/06/08 04:57:07;;;;;;;16.15;12.43;;;;;;;17.46;53.96;102280.13;5050004;27;114275;-70
2021/06/08 04:59:40;;;;;;;14.73;12.27;;;;;;;17.56;54.06;102281.41;5045232;27;113816;-71
2021/06/08 05:02:12;;;;;;;17.88;12.90;;;;;;;17.66;54.31;102276.44;5051202;27;123356;-70
2021/06/08 05:04:40;;;;;;;18.23;12.68;;;;;;;17.76;54.21;102276.81;5045930;27;124169;-70
2021/06/08 05:07:10;;;;;;;19.02;12.60;;;;;;;17.86;54.05;102283.47;5050064;27;113518;-70
2021/06/08 05:09:41;;;;;;;17.27;12.18;;;;;;;17.95;54.17;102277.63;5049528;27;113965;-71
2021/06/08 05:12:11;;;;;;;14.48;11.52;;;;;;;18.03;54.09;102275.38;5043430;27;124017;-71
2021/06/08 05:14:47;;;;;;;16.23;11.93;;;;;;;18.13;53.89;102274.88;5046391;27;123086;-70
2021/06/08 05:17:18;;;;;;;13.07;10.95;;;;;;;18.20;53.93;102269.09;5030913;27;113445;-70
2021/06/08 05:19:49;;;;;;;16.63;11.38;;;;;;;18.29;53.77;102270.44;5047976;27;114111;-70
2021/06/08 05:22:23;;;;;;;15.90;11.38;;;;;;;18.37;53.75;102273.56;5041867;27;123569;-70
2021/06/08 05:24:53;;;;;;;14.43;11.85;;;;;;;18.44;53.69;102280.31;5045962;27;124268;-70
2021/06/08 05:27:22;;;;;;;14.35;11.27;;;;;;;18.52;53.50;102281.72;5042171;27;114368;-70
2021/06/08 05:29:54;;;;;;;15.55;11.45;;;;;;;18.58;53.19;102284.03;5047505;27;113766;-70
2021/06/08 05:32:21;;;;;;;14.00;10.60;;;;;;;18.67;53.21;102280.84;5065376;27;125306;-70
2021/06/08 05:34:48;;;;;;;13.45;10.55;;;;;;;18.74;53.09;102275.97;5050074;27;122946;-69
2021/06/08 05:37:16;;;;;;;13.23;10.10;;;;;;;18.82;53.04;102285.38;5049491;27;115385;-72
2021/06/08 05:39:45;;;;;;;16.75;10.60;;;;;;;18.92;52.75;102280.34;5047299;27;113324;-70
2021/06/08 05:42:18;;;;;;;11.90;10.07;;;;;;;19.01;52.66;102281.66;5049050;27;124003;-70
2021/06/08 05:44:46;;;;;;;14.75;10.32;;;;;;;19.10;52.63;102282.91;5050936;27;124106;-70
2021/06/08 05:47:13;;;;;;;12.75;9.93;;;;;;;19.18;52.54;102286.88;5049327;27;114640;-70
2021/06/08 05:49:41;;;;;;;14.88;10.80;;;;;;;19.29;52.14;102290.75;5053032;27;114050;-71
2021/06/08 05:52:10;;;;;;;11.95;10.05;;;;;;;19.37;51.99;102296.56;5048730;27;124458;-70
2021/06/08 05:54:38;;;;;;;11.75;9.65;;;;;;;19.46;51.95;102296.03;5047921;27;122681;-70
2021/06/08 05:57:08;;;;;;;13.15;10.45;;;;;;;19.56;52.09;102297.19;5048657;27;113840;-70
2021/06/08 05:59:37;;;;;;;11.93;10.35;;;;;;;19.67;51.89;102298.38;5045010;27;113611;-70
2021/06/08 06:02:05;;;;;;;12.68;9.75;;;;;;;19.77;51.99;102304.94;5044563;27;124482;-71
2021/06/08 06:04:33;;;;;;;13.00;9.60;;;;;;;19.88;51.34;102302.47;5032931;27;122896;-72
2021/06/08 06:07:00;;;;;;;12.20;10.50;;;;;;;20.01;51.02;102313.34;5044829;27;113591;-71
2021/06/08 06:09:28;;;;;;;13.50;9.77;;;;;;;20.13;50.92;102306.34;5042757;27;113919;-70
2021/06/08 06:11:56;;;;;;;14.23;10.45;;;;;;;20.24;50.88;102301.16;5048909;27;123886;-71
2021/06/08 06:14:25;;;;;;;12.60;10.60;;;;;;;20.35;50.41;102301.34;5049586;27;123896;-71
2021/06/08 06:16:54;;;;;;;14.63;10.73;;;;;;;20.46;50.19;102302.50;5046832;27;113525;-71
2021/06/08 06:19:25;;;;;;;14.73;10.65;;;;;;;20.58;49.97;102302.56;5063855;27;114382;-71
2021/06/08 06:21:55;;;;;;;14.98;10.15;;;;;;;20.71;49.90;102308.06;5047622;27;124032;-71
2021/06/08 06:24:26;;;;;;;15.05;10.70;;;;;;;20.85;49.55;102308.97;5043145;27;124316;-71
2021/06/08 06:26:55;;;;;;;11.73;9.90;;;;;;;20.98;49.54;102309.91;5048125;27;115076;-71
2021/06/08 06:29:23;;;;;;;10.70;9.60;;;;;;;21.12;49.56;102307.16;5049224;27;114149;-72
2021/06/08 06:31:50;;;;;;;12.20;9.52;;;;;;;21.29;49.06;102307.88;5050529;27;124842;-71
2021/06/08 06:34:18;;;;;;;12.68;9.18;;;;;;;21.42;48.78;102308.78;5049276;27;123683;-71
2021/06/08 06:36:49;;;;;;;14.38;9.27;;;;;;;21.54;48.43;102307.97;5047735;27;114383;-72
2021/06/08 06:39:19;;;;;;;11.15;9.23;;;;;;;21.69;47.99;102316.84;5044710;27;113137;-72
2021/06/08 06:41:49;;;;;;;14.77;9.52;;;;;;;21.83;47.49;102307.81;5047369;27;124443;-71
2021/06/08 06:44:19;;;;;;;12.82;10.18;;;;;;;21.94;47.65;102310.63;5047775;27;123707;-72
2021/06/08 06:46:47;;;;;;;11.98;9.82;;;;;;;22.10;47.55;102314.94;5044638;27;114638;-72
2021/06/08 06:49:15;;;;;;;20.58;10.13;;;;;;;22.22;46.85;102314.06;5047433;27;113862;-72
2021/06/08 06:51:46;;;;;;;12.70;10.00;;;;;;;22.33;46.57;102311.47;5057295;27;123292;-72
2021/06/08 06:54:14;;;;;;;10.80;9.63;;;;;;;22.45;46.25;102311.56;5043762;27;124646;-72
2021/06/08 06:56:44;;;;;;;12.23;10.48;;;;;;;22.60;46.26;102313.16;5048013;27;114427;-72
2021/06/08 06:59:11;;;;;;;11.93;9.52;;;;;;;22.73;46.24;102314.00;5050088;27;113351;-72
2021/06/08 07:01:44;;;;;;;11.73;9.98;;;;;;;22.88;45.92;102311.13;5048218;27;124189;-72
2021/06/08 07:04:11;;;;;;;12.15;9.50;;;;;;;23.02;45.33;102308.28;5046930;27;122953;-72
2021/06/08 07:06:40;;;;;;;12.45;9.63;;;;;;;23.13;44.94;102315.59;5044686;27;113340;-72
2021/06/08 07:09:08;;;;;;;14.45;9.80;;;;;;;23.21;44.59;102312.34;5048512;22;113246;-70
2021/06/08 07:11:37;;;;;;;11.70;8.60;;;;;;;23.30;44.88;102314.31;5025154;28;123516;-70
2021/06/08 07:14:05;;;;;;;11.30;9.02;;;;;;;23.43;44.32;102315.16;5017914;28;124149;-70
2021/06/08 07:16:32;;;;;;;11.75;8.40;;;;;;;23.58;44.52;102314.94;5023433;27;115295;-70
2021/06/08 07:19:00;;;;;;;13.02;9.27;;;;;;;23.74;44.39;102315.47;5037204;27;114173;-70
2021/06/08 07:21:28;;;;;;;11.23;8.00;;;;;;;23.94;43.98;102315.78;5045651;27;124530;-71
2021/06/08 07:23:57;;;;;;;9.73;7.20;;;;;;;24.11;43.42;102315.34;5039861;27;123736;-70
2021/06/08 07:26:27;;;;;;;9.73;7.95;;;;;;;24.27;43.22;102312.25;5040231;27;114590;-68
2021/06/08 07:28:55;;;;;;;10.15;8.40;;;;;;;24.42;42.10;102321.00;5042845;27;114717;-68
2021/06/08 07:31:54;;;;;;;8.40;7.20;;;;;;;24.50;41.80;102313.09;5047157;27;124422;-69
2021/06/08 07:34:31;;;;;;;7.30;6.53;;;;;;;24.59;40.66;102315.09;5048752;27;124001;-68
2021/06/08 07:36:59;;;;;;;11.23;6.50;;;;;;;24.65;39.71;102317.28;5047358;27;114695;-69
2021/06/08 07:39:44;;;;;;;10.02;6.70;;;;;;;24.70;40.08;102307.94;5043394;27;114230;-69
2021/06/08 07:42:42;;;;;;;10.60;7.10;;;;;;;24.79;39.76;102304.47;5037026;27;124316;-69
2021/06/08 07:45:13;;;;;;;11.25;6.80;;;;;;;24.88;39.62;102317.25;5047306;27;123961;-69
2021/06/08 07:47:43;;;;;;;10.43;7.30;;;;;;;24.96;40.08;102309.38;5049144;27;113049;-70
2021/06/08 07:50:11;;;;;;;11.65;7.60;;;;;;;25.04;40.26;102309.56;5049812;27;114704;-69
2021/06/08 07:52:39;;;;;;;11.20;7.15;;;;;;;25.16;39.90;102304.13;5046912;27;124013;-69
2021/06/08 07:55:07;;;;;;;10.57;6.82;;;;;;;25.26;39.70;102307.81;5039953;27;124177;-69
2021/06/08 07:57:34;;;;;;;9.18;5.30;;;;;;;25.37;39.35;102309.59;5046227;27;114565;-70
2021/06/08 08:00:10;;;;;;;9.25;4.88;;;;;;;25.47;37.89;102317.81;5050843;27;114267;-69
2021/06/08 08:02:42;;;;;;;6.32;4.60;;;;;;;25.54;37.26;102313.59;5049105;27;124246;-70
2021/06/08 08:05:15;;;;;;;6.93;4.40;;;;;;;25.55;37.20;102309.91;5049552;27;122964;-69
2021/06/08 08:07:43;;;;;;;7.55;5.32;;;;;;;25.57;36.70;102307.91;5052069;27;114332;-69
2021/06/08 08:10:11;;;;;;;6.57;5.03;;;;;;;25.59;36.21;102317.63;5051893;27;114651;-69
2021/06/08 08:12:41;;;;;;;5.82;4.65;;;;;;;25.64;37.25;102319.97;5055142;27;124200;-69
2021/06/08 08:15:10;;;;;;;6.40;5.03;;;;;;;25.75;36.46;102317.19;5052393;27;124674;-68
2021/06/08 08:17:38;;;;;;;6.68;5.47;;;;;;;25.81;36.98;102316.63;5044822;27;114526;-70
2021/06/08 08:20:09;;;;;;;8.73;6.20;;;;;;;25.87;36.50;102306.25;5036123;27;113647;-70
2021/06/08 08:22:37;;;;;;;7.90;6.20;;;;;;;25.88;37.13;102310.66;5045412;27;124269;-70
2021/06/08 08:25:05;;;;;;;10.05;6.43;;;;;;;25.92;36.90;102309.44;5043517;27;123697;-71
2021/06/08 08:27:32;;;;;;;7.03;5.78;;;;;;;25.96;37.82;102308.19;5049087;27;113770;-70
2021/06/08 08:29:59;;;;;;;9.23;6.57;;;;;;;26.02;37.74;102303.06;5050989;27;113877;-70
2021/06/08 08:32:26;;;;;;;6.93;5.78;;;;;;;26.07;37.18;102294.53;5052274;27;124395;-70
2021/06/08 08:34:53;;;;;;;6.88;5.60;;;;;;;26.12;36.81;102297.69;5054197;27;124202;-70
2021/06/08 08:37:21;;;;;;;6.85;6.15;;;;;;;26.17;36.40;102295.44;5054318;27;114350;-70
2021/06/08 08:39:49;;;;;;;7.63;5.82;;;;;;;26.20;37.30;102294.28;5054361;27;113300;-70
2021/06/08 08:42:20;;;;;;;6.38;5.63;;;;;;;26.25;36.58;102293.91;5038905;27;123491;-71
2021/06/08 08:44:47;;;;;;;6.47;5.80;;;;;;;26.28;36.28;102282.78;5052656;27;124662;-70
2021/06/08 08:47:15;;;;;;;7.28;6.40;;;;;;;26.29;36.14;102287.19;5041666;27;114574;-70
2021/06/08 08:49:43;;;;;;;7.45;5.47;;;;;;;26.29;36.17;102281.75;5051111;27;114133;-70
2021/06/08 08:52:12;;;;;;;8.38;6.30;;;;;;;26.28;36.44;102277.34;5049840;27;124302;-69
2021/06/08 08:54:42;;;;;;;7.78;6.63;;;;;;;26.32;36.77;102273.34;5046920;27;125041;-70
2021/06/08 08:57:09;;;;;;;7.43;6.72;;;;;;;26.35;36.71;102281.19;5047086;27;115331;-70
2021/06/08 08:59:36;;;;;;;8.38;7.28;;;;;;;26.34;37.16;102274.91;5050526;27;115188;-70
2021/06/08 09:02:04;;;;;;;7.78;6.60;;;;;;;26.34;37.43;102274.06;5049681;27;124793;-70
2021/06/08 09:04:36;;;;;;;7.00;6.25;;;;;;;26.36;37.94;102277.50;5049676;27;124504;-70
2021/06/08 09:07:03;;;;;;;8.40;7.13;;;;;;;26.43;37.70;102267.81;5047609;27;115300;-70
2021/06/08 09:09:30;;;;;;;7.53;6.70;;;;;;;26.50;37.77;102268.94;5044321;27;113676;-70
2021/06/08 09:12:03;;;;;;;9.23;7.15;;;;;;;26.55;37.69;102272.09;5041671;27;123818;-70
2021/06/08 09:14:30;;;;;;;8.90;7.38;;;;;;;26.58;38.11;102266.41;5040398;27;124008;-70
2021/06/08 09:16:58;;;;;;;8.30;7.00;;;;;;;26.63;38.02;102257.00;5044626;27;114648;-71
2021/06/08 09:19:28;;;;;;;10.05;7.80;;;;;;;26.65;37.61;102255.84;5038697;27;114259;-70
2021/06/08 09:21:57;;;;;;;11.70;8.07;;;;;;;26.66;37.99;102257.59;5048915;27;123072;-70
2021/06/08 09:24:27;;;;;;;11.23;8.98;;;;;;;26.70;38.36;102258.16;5044388;27;124208;-69
2021/06/08 09:26:56;;;;;;;10.73;8.25;;;;;;;26.74;37.48;102255.00;5053369;27;114625;-70
2021/06/08 09:29:44;;;;;;;9.73;8.68;;;;;;;26.79;37.64;102257.31;5052599;27;112823;-69
2021/06/08 09:32:19;;;;;;;12.32;8.50;;;;;;;26.89;38.13;102252.75;5050917;27;124277;-70
2021/06/08 09:34:50;;;;;;;;;;;;;;;26.95;38.21;102252.16;5051631;27;124645;-71
2021/06/08 09:37:40;;;;;;;10.23;8.10;;;;;;;27.04;38.49;102249.59;5037784;27;114690;-71
2021/06/08 09:40:22;;;;;;;8.68;7.43;;;;;;;27.15;37.63;102241.31;5051994;27;113871;-71
2021/06/08 09:43:09;;;;;;;10.85;8.80;;;;;;;27.19;37.14;102238.13;5043204;27;125120;-71
2021/06/08 09:45:44;;;;;;;9.02;7.72;;;;;;;27.21;37.18;102246.16;5051255;27;125195;-71
2021/06/08 09:48:14;;;;;;;9.88;8.35;;;;;;;27.21;37.40;102251.59;5051439;27;114466;-71
2021/06/08 09:50:42;;;;;;;9.63;7.60;;;;;;;27.24;37.13;102251.31;5034260;27;114982;-70
2021/06/08 09:53:17;;;;;;;9.95;8.40;;;;;;;27.32;36.85;102253.34;5041163;27;123194;-71
2021/06/08 09:55:54;;;;;;;10.85;8.80;;;;;;;27.37;36.88;102251.91;5038225;27;124223;-71
2021/06/08 09:58:24;;;;;;;11.82;9.68;;;;;;;27.42;37.34;102247.88;5033714;27;114122;-71
2021/06/08 10:01:13;;;;;;;10.02;8.80;;;;;;;27.48;36.95;102252.75;5050778;27;114052;-71
2021/06/08 10:03:44;;;;;;;8.63;7.50;;;;;;;27.55;36.77;102253.88;5035170;27;123885;-70
2021/06/08 10:06:14;;;;;;;9.52;7.07;;;;;;;27.60;36.75;102245.28;5047293;27;123838;-71
2021/06/08 10:08:57;;;;;;;8.98;8.07;;;;;;;27.64;36.12;102252.16;5045144;27;114299;-71
2021/06/08 10:11:35;;;;;;;10.55;7.25;;;;;;;27.67;37.07;102247.28;5052990;27;114352;-71
2021/06/08 10:14:19;;;;;;;9.50;7.80;;;;;;;27.75;36.68;102244.66;5050149;27;124849;-71
2021/06/08 10:17:00;;;;;;;8.15;7.07;;;;;;;27.82;36.01;102244.06;5051631;27;125547;-71
2021/06/08 10:19:28;;;;;;;7.35;6.18;;;;;;;27.83;35.09;102243.06;5051145;27;114354;-71
2021/06/08 10:21:55;;;;;;;8.52;6.03;;;;;;;27.86;36.00;102237.28;5038851;27;114279;-71
2021/06/08 10:24:25;;;;;;;8.30;7.22;;;;;;;27.91;35.43;102233.16;5047624;27;124872;-71
2021/06/08 10:26:54;;;;;;;9.48;7.60;;;;;;;27.94;35.27;102237.47;5050741;27;122875;-71
2021/06/08 10:29:24;;;;;;;10.90;7.80;;;;;;;27.91;34.68;102227.72;5051810;27;114400;-71
2021/06/08 10:31:53;;;;;;;8.13;6.30;;;;;;;27.88;35.10;102229.88;5049551;27;114295;-71
2021/06/08 10:34:40;;;;;;;8.98;7.32;;;;;;;27.90;35.26;102231.47;5051955;27;123096;-71
2021/06/08 10:37:09;;;;;;;10.20;6.40;;;;;;;27.95;35.84;102225.53;5048670;27;124391;-71
2021/06/08 10:39:37;;;;;;;6.53;5.53;;;;;;;28.03;34.82;102231.13;5052107;27;115970;-71
2021/06/08 10:42:05;;;;;;;7.93;6.28;;;;;;;28.07;34.88;102232.53;5050609;27;115266;-71
2021/06/08 10:44:34;;;;;;;10.15;7.18;;;;;;;28.11;34.07;102238.53;5046634;27;124083;-71
2021/06/08 10:47:20;;;;;;;8.25;7.45;;;;;;;28.09;34.54;102230.50;5045185;27;124051;-71
2021/06/08 10:49:48;;;;;;;9.70;7.93;;;;;;;28.10;34.71;102221.31;5047333;27;114566;-71
2021/06/08 10:52:17;;;;;;;9.98;7.50;;;;;;;28.13;35.11;102226.47;5047933;27;114347;-71
2021/06/08 10:54:47;;;;;;;9.70;7.30;;;;;;;28.18;34.83;102233.31;5048356;27;124128;-71
2021/06/08 10:57:17;;;;;;;9.73;8.05;;;;;;;28.24;34.49;102227.28;5048710;27;123084;-71
2021/06/08 10:59:47;;;;;;;10.18;8.00;;;;;;;28.27;34.90;102221.53;5039685;27;114594;-71
2021/06/08 11:02:40;;;;;;;10.52;7.55;;;;;;;28.26;34.77;102219.81;5047440;27;96799;-71
2021/06/08 11:05:07;;;;;;;10.32;8.20;;;;;;;28.20;34.44;102217.69;5031384;27;124525;-71
2021/06/08 11:07:47;;;;;;;9.65;8.45;;;;;;;28.09;34.67;102225.06;5042723;27;124125;-71
2021/06/08 11:10:27;;;;;;;8.25;7.38;;;;;;;28.03;35.62;102222.94;5047771;27;114206;-71
2021/06/08 11:13:12;;;;;;;8.40;7.38;;;;;;;28.03;35.12;102224.78;5040954;27;114435;-71
2021/06/08 11:15:42;;;;;;;8.57;7.35;;;;;;;28.08;35.08;102212.44;5028641;27;123090;-71
2021/06/08 11:18:18;;;;;;;6.97;5.63;;;;;;;28.17;35.18;102223.47;5047233;27;122908;-71
2021/06/08 11:21:06;;;;;;;10.93;6.00;;;;;;;28.25;34.98;102229.00;5043980;27;114847;-71
2021/06/08 11:23:44;;;;;;;6.97;5.93;;;;;;;28.32;34.96;102230.09;5047403;27;113808;-71
2021/06/08 11:26:19;;;;;;;11.32;6.55;;;;;;;28.38;34.87;102218.59;5044058;27;124116;-71
2021/06/08 11:28:52;;;;;;;12.15;7.18;;;;;;;28.42;34.97;102214.53;5033231;27;124038;-71